createdAt,value
2019-03-15T00:01:55.381Z,3.70
2019-03-15T00:04:21.744Z,4.85
2019-03-15T00:06:48.861Z,4.57
2019-03-15T00:09:22.466Z,3.50
2019-03-15T00:11:50.830Z,2.90
2019-03-15T00:14:18.808Z,2.40
2019-03-15T00:16:45.597Z,2.90
2019-03-15T00:19:12.763Z,3.30
2019-03-15T00:21:46.629Z,2.60
2019-03-15T00:24:13.025Z,2.40
2019-03-15T00:26:39.615Z,2.67
2019-03-15T00:29:05.926Z,2.43
2019-03-15T00:31:34.767Z,2.00
2019-03-15T00:34:01.431Z,1.97
2019-03-15T00:36:29.704Z,3.00
2019-03-15T00:38:56.181Z,2.40
2019-03-15T00:41:24.495Z,3.23
2019-03-15T00:43:52.712Z,2.60
2019-03-15T00:46:19.171Z,2.47
2019-03-15T00:48:45.400Z,2.50
2019-03-15T00:51:14.524Z,2.20
2019-03-15T00:53:43.372Z,2.13
2019-03-15T00:56:12.974Z,2.17
2019-03-15T00:58:40.448Z,5.17
2019-03-15T01:01:12.332Z,3.30
2019-03-15T01:03:39.278Z,3.17
2019-03-15T01:06:05.719Z,2.90
2019-03-15T01:08:38.753Z,3.27
2019-03-15T01:11:09.376Z,2.40
2019-03-15T01:13:37.680Z,2.20
2019-03-15T01:16:07.304Z,2.50
2019-03-15T01:18:33.657Z,1.90
2019-03-15T01:21:06.332Z,2.30
2019-03-15T01:23:35.388Z,2.10
2019-03-15T01:26:04.168Z,2.40
2019-03-15T01:28:34.186Z,2.73
2019-03-15T01:31:04.118Z,3.23
2019-03-15T01:33:30.342Z,2.67
2019-03-15T01:35:56.496Z,3.07
2019-03-15T01:38:23.691Z,2.90
2019-03-15T01:40:52.867Z,2.83
2019-03-15T01:43:19.585Z,2.80
2019-03-15T01:45:45.779Z,3.27
2019-03-15T01:48:12.196Z,4.40
2019-03-15T01:50:40.227Z,4.97
2019-03-15T01:53:07.133Z,4.17
2019-03-15T01:55:39.995Z,4.37
2019-03-15T01:58:06.371Z,4.43
2019-03-15T02:00:32.591Z,3.23
2019-03-15T02:03:02.441Z,4.20
2019-03-15T02:05:29.068Z,4.50
2019-03-15T02:08:06.207Z,3.50
2019-03-15T02:10:33.540Z,3.27
2019-03-15T02:12:59.897Z,3.10
2019-03-15T02:15:30.270Z,3.13
2019-03-15T02:17:56.480Z,2.70
2019-03-15T02:20:23.775Z,3.83
2019-03-15T02:22:52.033Z,2.97
2019-03-15T02:25:21.344Z,2.73
2019-03-15T02:27:51.140Z,1.97
2019-03-15T02:30:19.789Z,2.23
2019-03-15T02:32:48.290Z,2.47
2019-03-15T02:35:15.047Z,2.37
2019-03-15T02:37:41.964Z,4.93
2019-03-15T02:40:08.988Z,3.43
2019-03-15T02:42:37.302Z,5.00
2019-03-15T02:45:06.577Z,5.67
2019-03-15T02:47:32.882Z,3.17
2019-03-15T02:49:59.174Z,4.80
2019-03-15T02:52:32.579Z,3.00
2019-03-15T02:54:56.919Z,3.03
2019-03-15T02:57:23.152Z,3.40
2019-03-15T02:59:54.422Z,2.93
2019-03-15T03:02:21.504Z,3.03
2019-03-15T03:04:48.515Z,3.13
2019-03-15T03:07:17.181Z,2.40
2019-03-15T03:09:47.541Z,3.70
2019-03-15T03:12:17.459Z,2.47
2019-03-15T03:14:43.975Z,2.10
2019-03-15T03:17:10.811Z,2.60
2019-03-15T03:19:37.099Z,3.13
2019-03-15T03:22:03.921Z,2.23
2019-03-15T03:24:30.937Z,1.97
2019-03-15T03:26:57.389Z,1.80
2019-03-15T03:29:28.328Z,1.60
2019-03-15T03:31:54.448Z,1.60
2019-03-15T03:34:20.623Z,1.70
2019-03-15T03:36:50.054Z,1.63
2019-03-15T03:39:18.429Z,1.70
2019-03-15T03:42:01.453Z,1.77
2019-03-15T03:44:22.179Z,2.10
2019-03-15T03:46:48.512Z,4.37
2019-03-15T03:49:14.840Z,6.70
2019-03-15T03:51:42.243Z,8.43
2019-03-15T03:54:12.049Z,11.80
2019-03-15T03:56:38.461Z,14.23
2019-03-15T03:59:09.991Z,10.70
2019-03-15T04:01:42.613Z,10.63
2019-03-15T04:04:14.318Z,7.57
2019-03-15T04:06:40.637Z,6.50
2019-03-15T04:09:07.028Z,4.47
2019-03-15T04:11:33.320Z,9.40
2019-03-15T04:13:59.596Z,6.60
2019-03-15T04:16:25.832Z,4.43
2019-03-15T04:19:29.563Z,3.57
2019-03-15T04:21:56.030Z,5.03
2019-03-15T04:24:24.996Z,7.47
2019-03-15T04:26:51.539Z,7.13
2019-03-15T04:29:18.007Z,9.43
2019-03-15T04:31:50.665Z,7.53
2019-03-15T04:34:21.603Z,11.77
2019-03-15T04:36:52.364Z,6.90
2019-03-15T04:39:18.923Z,11.20
2019-03-15T04:41:45.514Z,7.63
2019-03-15T04:44:12.267Z,5.57
2019-03-15T04:46:38.736Z,6.03
2019-03-15T04:49:05.746Z,5.53
2019-03-15T04:51:33.989Z,5.23
2019-03-15T04:54:00.134Z,6.57
2019-03-15T04:56:26.798Z,4.90
2019-03-15T04:58:54.762Z,4.30
2019-03-15T05:01:21.104Z,8.50
2019-03-15T05:03:47.316Z,4.57
2019-03-15T05:06:18.726Z,4.17
2019-03-15T05:08:49.369Z,4.73
2019-03-15T05:11:15.955Z,6.77
2019-03-15T05:13:42.268Z,4.57
2019-03-15T05:16:08.598Z,4.50
2019-03-15T05:18:35.214Z,3.20
2019-03-15T05:21:08.661Z,4.80
2019-03-15T05:23:35.045Z,5.70
2019-03-15T05:26:04.951Z,6.30
2019-03-15T05:28:33.701Z,4.57
2019-03-15T05:31:00.386Z,5.37
2019-03-15T05:33:32.258Z,3.43
2019-03-15T05:35:58.536Z,5.93
2019-03-15T05:38:28.773Z,8.60
2019-03-15T05:40:55.033Z,8.10
2019-03-15T05:43:25.116Z,6.37
2019-03-15T05:45:51.652Z,4.97
2019-03-15T05:48:18.130Z,4.60
2019-03-15T05:50:46.276Z,4.37
2019-03-15T05:53:14.771Z,7.47
2019-03-15T05:55:42.279Z,4.33
2019-03-15T05:58:08.529Z,3.83
2019-03-15T06:00:38.162Z,3.83
2019-03-15T06:03:08.247Z,2.93
2019-03-15T06:05:38.503Z,4.92
2019-03-15T06:11:08.460Z,3.47
2019-03-15T06:13:34.699Z,5.87
2019-03-15T06:16:01.890Z,6.63
2019-03-15T06:18:31.241Z,6.03
2019-03-15T06:20:57.496Z,7.50
2019-03-15T06:23:23.726Z,4.07
2019-03-15T06:25:56.125Z,7.43
2019-03-15T06:28:28.065Z,5.44
2019-03-15T06:31:01.256Z,6.57
2019-03-15T06:33:35.907Z,6.60
2019-03-15T06:36:01.642Z,6.47
2019-03-15T06:38:28.818Z,8.13
2019-03-15T06:40:57.071Z,4.93
2019-03-15T06:43:24.002Z,3.43
2019-03-15T06:45:51.069Z,3.12
2019-03-15T06:48:28.259Z,3.83
2019-03-15T06:50:54.186Z,3.40
2019-03-15T06:53:20.522Z,4.53
2019-03-15T06:56:05.010Z,4.17
2019-03-15T06:58:45.571Z,4.40
2019-03-15T07:01:12.670Z,3.20
2019-03-15T07:03:38.919Z,2.53
2019-03-15T07:06:17.636Z,4.83
2019-03-15T07:08:49.585Z,3.87
2019-03-15T07:11:20.985Z,5.83
2019-03-15T07:13:49.493Z,2.67
2019-03-15T07:16:16.479Z,3.83
2019-03-15T07:18:43.449Z,2.22
2019-03-15T07:21:09.674Z,5.30
2019-03-15T07:23:39.448Z,4.20
2019-03-15T07:26:05.821Z,3.15
2019-03-15T07:28:35.885Z,2.90
2019-03-15T07:31:23.887Z,3.23
2019-03-15T07:33:57.029Z,2.23
2019-03-15T07:36:24.298Z,2.43
2019-03-15T07:38:53.193Z,2.30
2019-03-15T07:41:20.245Z,2.80
2019-03-15T07:43:47.311Z,2.20
2019-03-15T07:46:16.424Z,2.93
2019-03-15T07:48:42.770Z,3.13
2019-03-15T07:51:17.837Z,2.17
2019-03-15T07:53:46.218Z,2.50
2019-03-15T07:56:15.242Z,2.13
2019-03-15T07:58:41.582Z,3.20
2019-03-15T08:01:10.772Z,3.50
2019-03-15T08:03:39.783Z,3.30
2019-03-15T08:06:08.753Z,3.40
2019-03-15T08:08:37.803Z,2.33
2019-03-15T08:11:04.222Z,2.00
2019-03-15T08:13:34.716Z,3.43
2019-03-15T08:16:03.655Z,2.53
2019-03-15T08:21:18.909Z,3.07
2019-03-15T08:23:45.961Z,4.30
2019-03-15T08:26:19.234Z,3.13
2019-03-15T08:28:46.159Z,3.43
2019-03-15T08:31:14.356Z,2.83
2019-03-15T08:33:44.401Z,3.17
2019-03-15T08:36:10.628Z,2.60
2019-03-15T08:38:47.432Z,3.20
2019-03-15T08:41:12.205Z,3.77
2019-03-15T08:43:45.842Z,3.70
2019-03-15T08:46:11.376Z,3.83
2019-03-15T08:48:40.897Z,4.47
2019-03-15T08:51:10.761Z,3.27
2019-03-15T08:53:45.503Z,3.93
2019-03-15T08:56:14.550Z,4.23
2019-03-15T08:58:46.649Z,4.10
2019-03-15T09:04:04.579Z,3.57
2019-03-15T09:06:40.797Z,6.23
2019-03-15T09:09:08.463Z,3.67
2019-03-15T09:11:46.326Z,4.70
2019-03-15T09:14:19.538Z,4.40
2019-03-15T09:16:45.938Z,5.33
2019-03-15T09:19:14.959Z,4.83
2019-03-15T09:21:47.555Z,3.00
2019-03-15T09:24:18.774Z,3.87
2019-03-15T09:26:46.505Z,4.87
2019-03-15T09:29:12.744Z,3.97
2019-03-15T09:31:47.942Z,2.77
2019-03-15T09:34:11.546Z,2.13
2019-03-15T09:36:49.314Z,2.47
2019-03-15T09:39:10.533Z,2.60
2019-03-15T09:41:39.756Z,3.77
2019-03-15T09:44:07.483Z,3.17
2019-03-15T09:46:37.767Z,3.20
2019-03-15T09:49:04.030Z,3.50
2019-03-15T09:51:30.507Z,3.90
2019-03-15T09:53:57.675Z,5.43
2019-03-15T09:56:27.761Z,4.45
2019-03-15T09:58:52.823Z,2.30
2019-03-15T10:01:34.268Z,3.03
2019-03-15T10:03:49.936Z,3.53
2019-03-15T10:06:21.490Z,3.47
2019-03-15T10:08:48.674Z,3.20
2019-03-15T10:11:17.615Z,2.97
2019-03-15T10:13:44.532Z,3.27
2019-03-15T10:16:24.042Z,4.60
2019-03-15T10:21:39.268Z,3.70
2019-03-15T10:24:06.204Z,2.97
2019-03-15T10:26:34.812Z,2.83
2019-03-15T10:29:15.244Z,3.27
2019-03-15T10:31:34.000Z,3.03
2019-03-15T10:34:01.085Z,3.33
2019-03-15T10:36:34.904Z,2.50
2019-03-15T10:39:01.178Z,2.50
2019-03-15T10:41:32.494Z,2.23
2019-03-15T10:43:58.816Z,2.63
2019-03-15T10:46:28.632Z,2.13
2019-03-15T10:48:57.884Z,1.87
2019-03-15T10:51:28.410Z,1.80
2019-03-15T10:53:55.237Z,1.80
2019-03-15T10:56:26.643Z,2.00
2019-03-15T10:58:59.492Z,1.97
2019-03-15T11:01:30.676Z,1.87
2019-03-15T11:03:59.489Z,2.00
2019-03-15T11:06:25.838Z,2.60
2019-03-15T11:08:55.626Z,3.10
2019-03-15T11:11:24.235Z,2.40
2019-03-15T11:13:55.806Z,2.40
2019-03-15T11:16:25.540Z,2.90
2019-03-15T11:18:54.514Z,1.70
2019-03-15T11:21:25.082Z,2.00
2019-03-15T11:23:58.450Z,2.80
2019-03-15T11:26:25.648Z,2.10
2019-03-15T11:28:54.701Z,2.13
2019-03-15T11:31:25.111Z,3.10
2019-03-15T11:33:55.476Z,2.35
2019-03-15T11:36:25.162Z,2.33
2019-03-15T11:38:56.182Z,1.90
2019-03-15T11:41:23.346Z,1.90
2019-03-15T11:43:53.098Z,4.63
2019-03-15T11:46:19.397Z,2.40
2019-03-15T11:48:45.962Z,3.40
2019-03-15T11:51:14.285Z,5.05
2019-03-15T11:53:46.364Z,2.23
2019-03-15T11:56:26.543Z,3.20
2019-03-15T11:58:46.262Z,3.17
2019-03-15T12:01:12.604Z,3.47
2019-03-15T12:03:52.174Z,2.97
2019-03-15T12:06:12.244Z,3.17
2019-03-15T12:08:39.431Z,3.02
2019-03-15T12:11:08.069Z,1.77
2019-03-15T12:13:39.225Z,2.85
2019-03-15T12:16:15.317Z,1.70
2019-03-15T12:18:41.061Z,2.80
2019-03-15T12:21:17.380Z,2.00
2019-03-15T12:23:47.628Z,1.97
2019-03-15T12:26:21.913Z,3.20
2019-03-15T12:28:54.935Z,2.88
2019-03-15T12:31:24.546Z,1.77
2019-03-15T12:33:50.877Z,1.65
2019-03-15T12:36:20.034Z,1.37
2019-03-15T12:38:46.486Z,1.10
2019-03-15T12:41:19.089Z,4.08
2019-03-15T12:43:49.169Z,2.20
2019-03-15T12:46:15.404Z,1.82
2019-03-15T12:48:47.002Z,1.92
2019-03-15T12:51:16.189Z,2.75
2019-03-15T12:53:43.179Z,3.63
2019-03-15T12:56:14.194Z,2.05
2019-03-15T12:58:42.747Z,2.52
2019-03-15T13:01:11.288Z,0.90
2019-03-15T13:03:42.409Z,1.32
2019-03-15T13:06:18.569Z,1.57
2019-03-15T13:08:47.433Z,1.85
2019-03-15T13:11:18.931Z,1.60
2019-03-15T13:13:45.310Z,1.20
2019-03-15T13:16:12.553Z,0.90
2019-03-15T13:18:41.328Z,0.90
2019-03-15T13:21:10.707Z,1.05
2019-03-15T13:23:39.664Z,0.80
2019-03-15T13:26:11.114Z,1.37
2019-03-15T13:28:37.506Z,0.80
2019-03-15T13:31:06.795Z,0.90
2019-03-15T13:33:35.710Z,1.10
2019-03-15T13:36:07.609Z,0.75
2019-03-15T13:38:32.654Z,0.80
2019-03-15T13:40:58.896Z,1.00
2019-03-15T13:43:26.019Z,1.30
2019-03-15T13:45:59.629Z,3.05
2019-03-15T13:48:26.477Z,1.50
2019-03-15T13:50:52.684Z,0.82
2019-03-15T13:53:28.951Z,0.80
2019-03-15T13:56:07.623Z,0.70
2019-03-15T13:58:35.058Z,0.90
2019-03-15T14:01:08.713Z,0.82
2019-03-15T14:03:39.928Z,0.70
2019-03-15T14:06:07.232Z,1.87
2019-03-15T14:08:36.043Z,2.10
2019-03-15T14:11:02.367Z,1.65
2019-03-15T14:13:31.361Z,0.90
2019-03-15T14:16:01.513Z,1.00
2019-03-15T14:18:34.651Z,1.17
2019-03-15T14:21:01.600Z,0.70
2019-03-15T14:23:28.562Z,0.70
2019-03-15T14:26:00.351Z,1.15
2019-03-15T14:28:30.183Z,0.98
2019-03-15T14:31:12.275Z,0.75
2019-03-15T14:33:41.258Z,1.00
2019-03-15T14:36:12.525Z,1.05
2019-03-15T14:38:38.943Z,0.75
2019-03-15T14:41:10.263Z,0.70
2019-03-15T14:46:30.086Z,0.75
2019-03-15T14:49:01.899Z,1.22
2019-03-15T14:51:28.666Z,0.80
2019-03-15T14:53:57.029Z,0.85
2019-03-15T14:59:16.856Z,0.70
2019-03-15T15:01:43.480Z,0.70
2019-03-15T15:04:28.163Z,0.70
2019-03-15T15:06:54.595Z,0.82
2019-03-15T15:09:20.946Z,1.15
2019-03-15T15:11:49.893Z,0.80
2019-03-15T15:14:19.275Z,0.70
2019-03-15T15:16:48.190Z,0.60
2019-03-15T15:19:15.129Z,0.70
2019-03-15T15:21:46.233Z,0.75
2019-03-15T15:24:15.135Z,0.70
2019-03-15T15:26:41.411Z,0.70
2019-03-15T15:29:13.868Z,0.76
2019-03-15T15:31:42.877Z,0.65
2019-03-15T15:34:13.851Z,0.65
2019-03-15T15:36:40.126Z,1.30
2019-03-15T15:39:12.749Z,1.00
2019-03-15T15:41:41.555Z,0.80
2019-03-15T15:44:13.418Z,0.85
2019-03-15T15:46:39.718Z,0.70
2019-03-15T15:49:05.999Z,0.70
2019-03-15T15:51:48.093Z,1.12
2019-03-15T15:54:18.087Z,0.88
2019-03-15T15:56:55.371Z,0.90
2019-03-15T15:59:23.766Z,0.95
2019-03-15T16:01:50.006Z,1.30
2019-03-15T16:04:16.280Z,1.60
2019-03-15T16:06:42.703Z,1.95
2019-03-15T16:09:10.004Z,1.84
2019-03-15T16:11:41.680Z,3.83
2019-03-15T16:14:07.941Z,8.00
2019-03-15T16:16:36.417Z,7.53
2019-03-15T16:19:13.502Z,5.30
2019-03-15T16:21:45.700Z,7.03
2019-03-15T16:24:15.098Z,3.42
2019-03-15T16:26:44.101Z,3.02
2019-03-15T16:29:20.327Z,3.10
2019-03-15T16:31:55.119Z,1.30
2019-03-15T16:34:22.150Z,0.80
2019-03-15T16:36:53.378Z,1.05
2019-03-15T16:39:19.796Z,0.80
2019-03-15T16:42:11.438Z,0.80
2019-03-15T16:44:48.111Z,0.80
2019-03-15T16:47:14.408Z,0.70
2019-03-15T16:49:45.720Z,0.70
2019-03-15T16:52:21.576Z,0.70
2019-03-15T16:54:47.804Z,0.78
2019-03-15T16:57:30.686Z,1.47
2019-03-15T16:59:59.195Z,0.80
2019-03-15T17:05:23.083Z,0.70
2019-03-15T17:07:58.737Z,0.80
2019-03-15T17:10:25.106Z,0.80
2019-03-15T17:12:51.300Z,1.00
2019-03-15T17:15:22.375Z,0.80
2019-03-15T17:17:50.483Z,1.15
2019-03-15T17:20:22.887Z,0.70
2019-03-15T17:22:49.284Z,0.80
2019-03-15T17:25:20.293Z,1.20
2019-03-15T17:30:45.405Z,0.90
2019-03-15T17:33:20.720Z,1.00
2019-03-15T17:35:52.471Z,0.90
2019-03-15T17:38:21.798Z,1.00
2019-03-15T17:40:51.799Z,0.80
2019-03-15T17:43:20.316Z,0.90
2019-03-15T17:45:46.605Z,0.78
2019-03-15T17:48:17.930Z,0.80
2019-03-15T17:50:45.532Z,0.80
2019-03-15T17:53:15.648Z,0.85
2019-03-15T17:55:44.545Z,0.83
2019-03-15T17:58:15.318Z,0.80
2019-03-15T18:00:48.923Z,0.95
2019-03-15T18:03:21.178Z,0.80
2019-03-15T18:05:44.111Z,1.02
2019-03-15T18:08:10.689Z,0.85
2019-03-15T18:10:37.025Z,0.88
2019-03-15T18:13:17.001Z,0.90
2019-03-15T18:15:43.459Z,1.15
2019-03-15T18:18:09.753Z,0.80
2019-03-15T18:20:38.874Z,0.90
2019-03-15T18:23:05.089Z,1.12
2019-03-15T18:25:35.923Z,1.02
2019-03-15T18:28:04.646Z,0.90
2019-03-15T18:30:39.451Z,1.22
2019-03-15T18:33:16.431Z,0.97
2019-03-15T18:35:50.461Z,1.20
2019-03-15T18:38:16.671Z,1.62
2019-03-15T18:40:42.921Z,1.15
2019-03-15T18:43:11.881Z,1.60
2019-03-15T18:45:45.368Z,2.05
2019-03-15T18:48:18.409Z,1.10
2019-03-15T18:50:49.777Z,1.85
2019-03-15T18:53:16.072Z,0.90
2019-03-15T18:55:47.172Z,0.98
2019-03-15T18:58:14.381Z,0.90
2019-03-15T19:00:44.590Z,2.02
2019-03-15T19:03:11.094Z,1.80
2019-03-15T19:05:39.850Z,1.65
2019-03-15T19:08:09.047Z,1.95
2019-03-15T19:10:38.546Z,1.60
2019-03-15T19:13:03.635Z,0.90
2019-03-15T19:15:30.463Z,0.93
2019-03-15T19:18:00.781Z,0.90
2019-03-15T19:20:30.667Z,2.30
2019-03-15T19:22:58.585Z,3.70
2019-03-15T19:25:36.356Z,3.87
2019-03-15T19:27:59.026Z,1.02
2019-03-15T19:30:29.674Z,1.20
2019-03-15T19:32:56.614Z,0.90
2019-03-15T19:35:38.747Z,1.00
2019-03-15T19:38:05.059Z,1.00
2019-03-15T19:40:31.453Z,0.80
2019-03-15T19:42:59.674Z,0.70
2019-03-15T19:45:29.148Z,0.88
2019-03-15T19:48:03.597Z,0.85
2019-03-15T19:50:33.577Z,1.20
2019-03-15T19:53:00.238Z,0.80
2019-03-15T19:55:28.480Z,1.00
2019-03-15T19:57:59.700Z,1.80
2019-03-15T20:00:27.745Z,1.00
2019-03-15T20:02:54.564Z,1.23
2019-03-15T20:05:20.952Z,1.70
2019-03-15T20:07:47.378Z,1.07
2019-03-15T20:10:16.706Z,1.00
2019-03-15T20:12:42.858Z,0.90
2019-03-15T20:15:11.233Z,1.45
2019-03-15T20:17:37.463Z,1.47
2019-03-15T20:20:12.386Z,1.12
2019-03-15T20:22:45.217Z,1.22
2019-03-15T20:25:17.960Z,1.70
2019-03-15T20:27:44.896Z,0.90
2019-03-15T20:33:14.213Z,1.10
2019-03-15T20:35:44.903Z,1.15
2019-03-15T20:38:13.794Z,0.88
2019-03-15T20:40:45.709Z,1.10
2019-03-15T20:43:11.948Z,1.10
2019-03-15T20:45:38.140Z,1.07
2019-03-15T20:51:00.584Z,1.20
2019-03-15T20:53:27.848Z,1.83
2019-03-15T20:55:59.472Z,1.10
2019-03-15T20:58:27.534Z,1.00
2019-03-15T21:03:56.516Z,1.20
2019-03-15T21:06:27.377Z,1.10
2019-03-15T21:08:58.795Z,1.40
2019-03-15T21:11:28.065Z,1.10
2019-03-15T21:16:45.632Z,2.50
2019-03-15T21:19:11.979Z,1.02
2019-03-15T21:21:42.205Z,0.90
2019-03-15T21:24:11.263Z,1.30
2019-03-15T21:26:37.491Z,1.10
2019-03-15T21:29:03.859Z,1.10
2019-03-15T21:31:30.716Z,1.10
2019-03-15T21:33:56.944Z,1.17
2019-03-15T21:36:23.579Z,1.85
2019-03-15T21:38:49.914Z,1.10
2019-03-15T21:41:20.223Z,1.03
2019-03-15T21:43:46.827Z,0.98
2019-03-15T21:46:13.358Z,0.90
2019-03-15T21:48:41.889Z,1.17
2019-03-15T21:53:53.536Z,1.10
2019-03-15T21:58:58.620Z,1.33
2019-03-15T22:01:25.407Z,1.10
2019-03-15T22:03:51.629Z,1.17
2019-03-15T22:06:22.203Z,1.40
2019-03-15T22:08:48.528Z,1.20
2019-03-15T22:11:21.028Z,1.10
2019-03-15T22:13:43.374Z,1.03
2019-03-15T22:16:09.662Z,1.20
2019-03-15T22:21:15.294Z,0.95
2019-03-15T22:23:41.635Z,1.12
2019-03-15T22:26:16.827Z,0.93
2019-03-15T22:28:51.076Z,0.90
2019-03-15T22:31:17.789Z,0.90
2019-03-15T22:33:53.514Z,1.00
2019-03-15T22:36:20.184Z,1.10
2019-03-15T22:38:46.692Z,0.90
2019-03-15T22:41:24.179Z,1.07
2019-03-15T22:43:54.700Z,0.87
2019-03-15T22:46:35.869Z,0.90
2019-03-15T22:49:02.329Z,0.90
2019-03-15T22:51:37.094Z,0.90
2019-03-15T22:54:03.517Z,1.23
2019-03-15T22:56:42.758Z,0.97
2019-03-15T22:59:15.192Z,0.80
2019-03-15T23:01:41.700Z,0.80
2019-03-15T23:04:08.019Z,0.80
2019-03-15T23:06:34.648Z,0.80
2019-03-15T23:09:07.704Z,1.37
2019-03-15T23:11:40.313Z,1.00
2019-03-15T23:14:06.984Z,1.00
2019-03-15T23:16:33.509Z,0.70
2019-03-15T23:19:05.022Z,3.12
2019-03-15T23:21:37.849Z,0.80
2019-03-15T23:24:06.495Z,0.80
2019-03-15T23:26:32.718Z,0.80
2019-03-15T23:29:58.480Z,0.70
2019-03-15T23:31:43.785Z,0.80
2019-03-15T23:34:26.405Z,0.72
2019-03-15T23:36:54.234Z,0.93
2019-03-15T23:39:46.584Z,0.70
2019-03-15T23:45:07.863Z,0.80
2019-03-15T23:47:34.217Z,0.77
2019-03-15T23:50:26.561Z,0.87
2019-03-15T23:52:53.135Z,0.75
2019-03-15T23:58:09.828Z,0.87
